sensor_id;sensor_type;location;lat;lon;timestamp;P1;durP1;ratioP1;P2;durP2;ratioP2
53036;SDS011;38924;52.134;4.666;2023-08-07T00:00:23;12.05;;;4.38;;
53036;SDS011;38924;52.134;4.666;2023-08-07T00:02:49;15.23;;;5.68;;
53036;SDS011;38924;52.134;4.666;2023-08-07T00:05:14;14.43;;;4.43;;
53036;SDS011;38924;52.134;4.666;2023-08-07T00:07:44;16.45;;;4.82;;
53036;SDS011;38924;52.134;4.666;2023-08-07T00:10:12;11.15;;;4.13;;
53036;SDS011;38924;52.134;4.666;2023-08-07T00:12:38;12.25;;;4.88;;
53036;SDS011;38924;52.134;4.666;2023-08-07T00:15:04;14.20;;;4.65;;
53036;SDS011;38924;52.134;4.666;2023-08-07T00:17:31;14.68;;;4.10;;
53036;SDS011;38924;52.134;4.666;2023-08-07T00:19:56;16.42;;;4.82;;
53036;SDS011;38924;52.134;4.666;2023-08-07T00:22:22;18.85;;;4.32;;
53036;SDS011;38924;52.134;4.666;2023-08-07T00:24:48;18.75;;;4.35;;
53036;SDS011;38924;52.134;4.666;2023-08-07T00:27:13;19.88;;;4.85;;
53036;SDS011;38924;52.134;4.666;2023-08-07T00:29:40;17.15;;;4.60;;
53036;SDS011;38924;52.134;4.666;2023-08-07T00:32:06;15.95;;;4.18;;
53036;SDS011;38924;52.134;4.666;2023-08-07T00:34:32;21.35;;;6.25;;
53036;SDS011;38924;52.134;4.666;2023-08-07T00:36:58;15.80;;;4.80;;
53036;SDS011;38924;52.134;4.666;2023-08-07T00:39:23;14.63;;;4.13;;
53036;SDS011;38924;52.134;4.666;2023-08-07T00:41:50;8.85;;;3.65;;
53036;SDS011;38924;52.134;4.666;2023-08-07T00:44:16;10.75;;;3.58;;
53036;SDS011;38924;52.134;4.666;2023-08-07T00:46:42;12.77;;;3.67;;
53036;SDS011;38924;52.134;4.666;2023-08-07T00:49:08;11.60;;;4.35;;
53036;SDS011;38924;52.134;4.666;2023-08-07T00:51:35;10.65;;;4.28;;
53036;SDS011;38924;52.134;4.666;2023-08-07T00:54:00;14.60;;;5.03;;
53036;SDS011;38924;52.134;4.666;2023-08-07T00:56:28;16.25;;;3.72;;
53036;SDS011;38924;52.134;4.666;2023-08-07T00:58:54;8.55;;;4.43;;
53036;SDS011;38924;52.134;4.666;2023-08-07T01:01:20;12.63;;;5.30;;
53036;SDS011;38924;52.134;4.666;2023-08-07T01:03:46;15.48;;;5.28;;
53036;SDS011;38924;52.134;4.666;2023-08-07T01:06:11;16.98;;;5.40;;
53036;SDS011;38924;52.134;4.666;2023-08-07T01:08:37;15.88;;;5.45;;
53036;SDS011;38924;52.134;4.666;2023-08-07T01:13:34;18.60;;;5.28;;
53036;SDS011;38924;52.134;4.666;2023-08-07T01:16:01;16.90;;;5.03;;
53036;SDS011;38924;52.134;4.666;2023-08-07T01:18:28;26.17;;;5.35;;
53036;SDS011;38924;52.134;4.666;2023-08-07T01:20:55;18.63;;;5.45;;
53036;SDS011;38924;52.134;4.666;2023-08-07T01:23:21;16.08;;;5.20;;
53036;SDS011;38924;52.134;4.666;2023-08-07T01:25:47;13.90;;;4.80;;
53036;SDS011;38924;52.134;4.666;2023-08-07T01:28:16;24.70;;;6.50;;
53036;SDS011;38924;52.134;4.666;2023-08-07T01:30:45;17.20;;;6.00;;
53036;SDS011;38924;52.134;4.666;2023-08-07T01:33:29;20.48;;;7.45;;
53036;SDS011;38924;52.134;4.666;2023-08-07T01:35:57;14.90;;;6.22;;
53036;SDS011;38924;52.134;4.666;2023-08-07T01:38:27;15.05;;;6.28;;
53036;SDS011;38924;52.134;4.666;2023-08-07T01:40:54;12.93;;;5.57;;
53036;SDS011;38924;52.134;4.666;2023-08-07T01:43:21;16.48;;;6.13;;
53036;SDS011;38924;52.134;4.666;2023-08-07T01:45:46;14.52;;;5.65;;
53036;SDS011;38924;52.134;4.666;2023-08-07T01:48:12;17.40;;;5.90;;
53036;SDS011;38924;52.134;4.666;2023-08-07T01:50:38;17.90;;;5.57;;
53036;SDS011;38924;52.134;4.666;2023-08-07T01:53:04;9.60;;;5.18;;
53036;SDS011;38924;52.134;4.666;2023-08-07T01:55:30;12.68;;;5.20;;
53036;SDS011;38924;52.134;4.666;2023-08-07T01:57:55;17.67;;;4.82;;
53036;SDS011;38924;52.134;4.666;2023-08-07T02:00:21;17.80;;;5.88;;
53036;SDS011;38924;52.134;4.666;2023-08-07T02:02:47;18.27;;;6.03;;
53036;SDS011;38924;52.134;4.666;2023-08-07T02:05:13;12.98;;;5.68;;
53036;SDS011;38924;52.134;4.666;2023-08-07T02:07:39;23.67;;;7.03;;
53036;SDS011;38924;52.134;4.666;2023-08-07T02:10:05;14.07;;;6.45;;
53036;SDS011;38924;52.134;4.666;2023-08-07T02:12:31;15.32;;;4.82;;
53036;SDS011;38924;52.134;4.666;2023-08-07T02:14:58;22.85;;;4.93;;
53036;SDS011;38924;52.134;4.666;2023-08-07T02:17:25;13.48;;;4.95;;
53036;SDS011;38924;52.134;4.666;2023-08-07T02:19:51;16.85;;;5.50;;
53036;SDS011;38924;52.134;4.666;2023-08-07T02:22:16;13.48;;;5.18;;
53036;SDS011;38924;52.134;4.666;2023-08-07T02:24:42;9.20;;;4.22;;
53036;SDS011;38924;52.134;4.666;2023-08-07T02:27:08;13.07;;;5.40;;
53036;SDS011;38924;52.134;4.666;2023-08-07T02:29:35;13.80;;;5.85;;
53036;SDS011;38924;52.134;4.666;2023-08-07T02:32:01;22.38;;;5.82;;
53036;SDS011;38924;52.134;4.666;2023-08-07T02:34:49;22.20;;;5.85;;
53036;SDS011;38924;52.134;4.666;2023-08-07T02:37:14;19.73;;;5.82;;
53036;SDS011;38924;52.134;4.666;2023-08-07T02:39:40;18.55;;;6.03;;
53036;SDS011;38924;52.134;4.666;2023-08-07T02:42:05;23.65;;;7.43;;
53036;SDS011;38924;52.134;4.666;2023-08-07T02:44:31;19.55;;;7.72;;
53036;SDS011;38924;52.134;4.666;2023-08-07T02:46:57;31.63;;;8.30;;
53036;SDS011;38924;52.134;4.666;2023-08-07T02:49:23;20.80;;;8.18;;
53036;SDS011;38924;52.134;4.666;2023-08-07T02:51:48;18.13;;;7.63;;
53036;SDS011;38924;52.134;4.666;2023-08-07T02:54:14;21.77;;;7.65;;
53036;SDS011;38924;52.134;4.666;2023-08-07T02:56:41;15.88;;;6.93;;
53036;SDS011;38924;52.134;4.666;2023-08-07T02:59:06;18.67;;;7.80;;
53036;SDS011;38924;52.134;4.666;2023-08-07T03:01:32;17.45;;;6.53;;
53036;SDS011;38924;52.134;4.666;2023-08-07T03:03:58;17.13;;;7.32;;
53036;SDS011;38924;52.134;4.666;2023-08-07T03:06:24;15.88;;;7.38;;
53036;SDS011;38924;52.134;4.666;2023-08-07T03:08:49;17.40;;;6.85;;
53036;SDS011;38924;52.134;4.666;2023-08-07T03:11:15;16.52;;;6.78;;
53036;SDS011;38924;52.134;4.666;2023-08-07T03:13:41;13.68;;;6.57;;
53036;SDS011;38924;52.134;4.666;2023-08-07T03:16:07;19.33;;;7.60;;
53036;SDS011;38924;52.134;4.666;2023-08-07T03:18:34;15.15;;;7.68;;
53036;SDS011;38924;52.134;4.666;2023-08-07T03:21:00;16.13;;;6.10;;
53036;SDS011;38924;52.134;4.666;2023-08-07T03:23:31;19.23;;;6.53;;
53036;SDS011;38924;52.134;4.666;2023-08-07T03:26:04;12.38;;;5.38;;
53036;SDS011;38924;52.134;4.666;2023-08-07T03:28:30;18.63;;;7.25;;
53036;SDS011;38924;52.134;4.666;2023-08-07T03:30:55;21.80;;;7.38;;
53036;SDS011;38924;52.134;4.666;2023-08-07T03:33:22;25.83;;;7.10;;
53036;SDS011;38924;52.134;4.666;2023-08-07T03:35:47;21.23;;;7.78;;
53036;SDS011;38924;52.134;4.666;2023-08-07T03:38:13;19.25;;;6.70;;
53036;SDS011;38924;52.134;4.666;2023-08-07T03:40:39;17.02;;;6.78;;
53036;SDS011;38924;52.134;4.666;2023-08-07T03:43:10;12.27;;;6.80;;
53036;SDS011;38924;52.134;4.666;2023-08-07T03:45:39;12.95;;;6.93;;
53036;SDS011;38924;52.134;4.666;2023-08-07T03:48:05;13.70;;;6.55;;
53036;SDS011;38924;52.134;4.666;2023-08-07T03:50:31;19.85;;;7.95;;
53036;SDS011;38924;52.134;4.666;2023-08-07T03:53:00;21.08;;;7.43;;
53036;SDS011;38924;52.134;4.666;2023-08-07T03:55:31;19.60;;;7.30;;
53036;SDS011;38924;52.134;4.666;2023-08-07T03:57:57;13.27;;;6.22;;
53036;SDS011;38924;52.134;4.666;2023-08-07T04:00:23;24.23;;;8.45;;
53036;SDS011;38924;52.134;4.666;2023-08-07T04:02:49;23.80;;;8.05;;
53036;SDS011;38924;52.134;4.666;2023-08-07T04:05:15;17.27;;;7.00;;
53036;SDS011;38924;52.134;4.666;2023-08-07T04:07:42;17.67;;;8.55;;
53036;SDS011;38924;52.134;4.666;2023-08-07T04:10:08;21.13;;;7.53;;
53036;SDS011;38924;52.134;4.666;2023-08-07T04:12:34;19.10;;;8.30;;
53036;SDS011;38924;52.134;4.666;2023-08-07T04:15:00;19.98;;;7.78;;
53036;SDS011;38924;52.134;4.666;2023-08-07T04:17:27;16.17;;;6.45;;
53036;SDS011;38924;52.134;4.666;2023-08-07T04:19:54;21.63;;;7.57;;
53036;SDS011;38924;52.134;4.666;2023-08-07T04:22:20;19.02;;;8.48;;
53036;SDS011;38924;52.134;4.666;2023-08-07T04:24:45;16.38;;;7.78;;
53036;SDS011;38924;52.134;4.666;2023-08-07T04:27:11;20.27;;;6.70;;
53036;SDS011;38924;52.134;4.666;2023-08-07T04:29:39;20.65;;;7.20;;
53036;SDS011;38924;52.134;4.666;2023-08-07T04:32:05;15.07;;;7.45;;
53036;SDS011;38924;52.134;4.666;2023-08-07T04:34:31;18.85;;;8.23;;
53036;SDS011;38924;52.134;4.666;2023-08-07T04:36:57;17.63;;;7.30;;
53036;SDS011;38924;52.134;4.666;2023-08-07T04:39:22;12.85;;;6.55;;
53036;SDS011;38924;52.134;4.666;2023-08-07T04:41:48;20.75;;;7.95;;
53036;SDS011;38924;52.134;4.666;2023-08-07T04:44:15;27.38;;;7.75;;
53036;SDS011;38924;52.134;4.666;2023-08-07T04:46:41;19.02;;;8.07;;
53036;SDS011;38924;52.134;4.666;2023-08-07T04:49:07;17.73;;;7.05;;
53036;SDS011;38924;52.134;4.666;2023-08-07T04:51:33;17.17;;;6.75;;
53036;SDS011;38924;52.134;4.666;2023-08-07T04:53:59;11.57;;;6.93;;
53036;SDS011;38924;52.134;4.666;2023-08-07T04:56:24;12.38;;;6.22;;
53036;SDS011;38924;52.134;4.666;2023-08-07T04:58:50;17.42;;;7.90;;
53036;SDS011;38924;52.134;4.666;2023-08-07T05:01:16;18.63;;;7.15;;
53036;SDS011;38924;52.134;4.666;2023-08-07T05:03:41;20.65;;;6.82;;
53036;SDS011;38924;52.134;4.666;2023-08-07T05:06:07;18.98;;;7.25;;
53036;SDS011;38924;52.134;4.666;2023-08-07T05:08:33;19.52;;;7.32;;
53036;SDS011;38924;52.134;4.666;2023-08-07T05:10:58;12.88;;;6.18;;
53036;SDS011;38924;52.134;4.666;2023-08-07T05:13:27;21.08;;;7.57;;
53036;SDS011;38924;52.134;4.666;2023-08-07T05:15:53;11.65;;;7.20;;
53036;SDS011;38924;52.134;4.666;2023-08-07T05:18:18;21.30;;;6.72;;
53036;SDS011;38924;52.134;4.666;2023-08-07T05:20:44;14.13;;;7.40;;
53036;SDS011;38924;52.134;4.666;2023-08-07T05:23:10;14.85;;;6.38;;
53036;SDS011;38924;52.134;4.666;2023-08-07T05:25:36;12.55;;;5.78;;
53036;SDS011;38924;52.134;4.666;2023-08-07T05:28:03;14.10;;;6.40;;
53036;SDS011;38924;52.134;4.666;2023-08-07T05:30:29;16.48;;;7.43;;
53036;SDS011;38924;52.134;4.666;2023-08-07T05:32:55;15.98;;;6.35;;
53036;SDS011;38924;52.134;4.666;2023-08-07T05:35:20;11.18;;;6.93;;
53036;SDS011;38924;52.134;4.666;2023-08-07T05:37:46;15.95;;;7.43;;
53036;SDS011;38924;52.134;4.666;2023-08-07T05:40:12;13.65;;;6.35;;
53036;SDS011;38924;52.134;4.666;2023-08-07T05:42:38;16.75;;;6.57;;
53036;SDS011;38924;52.134;4.666;2023-08-07T05:45:04;20.60;;;7.80;;
53036;SDS011;38924;52.134;4.666;2023-08-07T05:47:29;17.58;;;6.05;;
53036;SDS011;38924;52.134;4.666;2023-08-07T05:49:55;15.68;;;7.13;;
53036;SDS011;38924;52.134;4.666;2023-08-07T05:52:21;19.38;;;7.13;;
53036;SDS011;38924;52.134;4.666;2023-08-07T05:54:46;15.10;;;6.70;;
53036;SDS011;38924;52.134;4.666;2023-08-07T05:57:13;14.57;;;7.03;;
53036;SDS011;38924;52.134;4.666;2023-08-07T05:59:38;23.20;;;6.82;;
53036;SDS011;38924;52.134;4.666;2023-08-07T06:02:05;18.63;;;7.05;;
53036;SDS011;38924;52.134;4.666;2023-08-07T06:04:31;12.55;;;5.97;;
53036;SDS011;38924;52.134;4.666;2023-08-07T06:06:57;15.48;;;7.28;;
53036;SDS011;38924;52.134;4.666;2023-08-07T06:09:23;13.35;;;7.10;;
53036;SDS011;38924;52.134;4.666;2023-08-07T06:11:48;16.98;;;6.90;;
53036;SDS011;38924;52.134;4.666;2023-08-07T06:14:14;14.88;;;7.18;;
53036;SDS011;38924;52.134;4.666;2023-08-07T06:16:40;18.25;;;7.40;;
53036;SDS011;38924;52.134;4.666;2023-08-07T06:19:05;17.20;;;7.53;;
53036;SDS011;38924;52.134;4.666;2023-08-07T06:21:32;16.92;;;8.02;;
53036;SDS011;38924;52.134;4.666;2023-08-07T06:23:57;12.00;;;6.80;;
53036;SDS011;38924;52.134;4.666;2023-08-07T06:26:23;18.58;;;7.50;;
53036;SDS011;38924;52.134;4.666;2023-08-07T06:28:49;22.20;;;8.45;;
53036;SDS011;38924;52.134;4.666;2023-08-07T06:31:15;21.73;;;8.00;;
53036;SDS011;38924;52.134;4.666;2023-08-07T06:33:40;16.52;;;6.38;;
53036;SDS011;38924;52.134;4.666;2023-08-07T06:36:06;16.42;;;6.25;;
53036;SDS011;38924;52.134;4.666;2023-08-07T06:38:34;19.25;;;6.53;;
53036;SDS011;38924;52.134;4.666;2023-08-07T06:41:00;18.70;;;6.25;;
53036;SDS011;38924;52.134;4.666;2023-08-07T06:43:25;22.83;;;7.45;;
53036;SDS011;38924;52.134;4.666;2023-08-07T06:45:52;19.50;;;6.35;;
53036;SDS011;38924;52.134;4.666;2023-08-07T06:48:18;20.73;;;6.97;;
53036;SDS011;38924;52.134;4.666;2023-08-07T06:50:44;21.13;;;6.30;;
53036;SDS011;38924;52.134;4.666;2023-08-07T06:53:09;19.30;;;8.05;;
53036;SDS011;38924;52.134;4.666;2023-08-07T06:55:35;12.63;;;5.40;;
53036;SDS011;38924;52.134;4.666;2023-08-07T06:58:01;17.98;;;7.05;;
53036;SDS011;38924;52.134;4.666;2023-08-07T07:00:26;15.15;;;6.97;;
53036;SDS011;38924;52.134;4.666;2023-08-07T07:02:52;16.55;;;6.25;;
53036;SDS011;38924;52.134;4.666;2023-08-07T07:05:18;15.68;;;6.78;;
53036;SDS011;38924;52.134;4.666;2023-08-07T07:07:44;20.40;;;6.65;;
53036;SDS011;38924;52.134;4.666;2023-08-07T07:10:10;19.63;;;5.93;;
53036;SDS011;38924;52.134;4.666;2023-08-07T07:12:35;11.23;;;5.25;;
53036;SDS011;38924;52.134;4.666;2023-08-07T07:15:01;13.25;;;5.50;;
53036;SDS011;38924;52.134;4.666;2023-08-07T07:17:27;14.35;;;5.80;;
53036;SDS011;38924;52.134;4.666;2023-08-07T07:19:53;18.30;;;5.78;;
53036;SDS011;38924;52.134;4.666;2023-08-07T07:22:19;19.48;;;6.18;;
53036;SDS011;38924;52.134;4.666;2023-08-07T07:24:44;10.95;;;4.28;;
53036;SDS011;38924;52.134;4.666;2023-08-07T07:27:10;16.40;;;5.07;;
53036;SDS011;38924;52.134;4.666;2023-08-07T07:29:36;11.70;;;3.88;;
53036;SDS011;38924;52.134;4.666;2023-08-07T07:32:02;12.40;;;4.22;;
53036;SDS011;38924;52.134;4.666;2023-08-07T07:34:27;13.60;;;4.40;;
53036;SDS011;38924;52.134;4.666;2023-08-07T07:36:53;8.70;;;4.00;;
53036;SDS011;38924;52.134;4.666;2023-08-07T07:39:19;7.97;;;4.15;;
53036;SDS011;38924;52.134;4.666;2023-08-07T07:41:45;13.60;;;4.70;;
53036;SDS011;38924;52.134;4.666;2023-08-07T07:44:11;9.75;;;3.47;;
53036;SDS011;38924;52.134;4.666;2023-08-07T07:46:36;8.88;;;5.07;;
53036;SDS011;38924;52.134;4.666;2023-08-07T07:49:02;9.48;;;4.65;;
53036;SDS011;38924;52.134;4.666;2023-08-07T07:51:33;11.98;;;4.63;;
53036;SDS011;38924;52.134;4.666;2023-08-07T07:54:00;7.68;;;5.65;;
53036;SDS011;38924;52.134;4.666;2023-08-07T07:56:26;12.70;;;6.40;;
53036;SDS011;38924;52.134;4.666;2023-08-07T07:58:55;10.52;;;6.50;;
53036;SDS011;38924;52.134;4.666;2023-08-07T08:01:20;14.70;;;5.85;;
53036;SDS011;38924;52.134;4.666;2023-08-07T08:03:46;9.70;;;4.72;;
53036;SDS011;38924;52.134;4.666;2023-08-07T08:06:12;16.63;;;6.20;;
53036;SDS011;38924;52.134;4.666;2023-08-07T08:08:38;11.32;;;4.70;;
53036;SDS011;38924;52.134;4.666;2023-08-07T08:11:04;13.07;;;5.38;;
53036;SDS011;38924;52.134;4.666;2023-08-07T08:13:30;15.00;;;6.18;;
53036;SDS011;38924;52.134;4.666;2023-08-07T08:15:55;8.30;;;4.93;;
53036;SDS011;38924;52.134;4.666;2023-08-07T08:18:21;11.07;;;4.63;;
53036;SDS011;38924;52.134;4.666;2023-08-07T08:20:47;13.48;;;4.50;;
53036;SDS011;38924;52.134;4.666;2023-08-07T08:23:12;10.77;;;5.20;;
53036;SDS011;38924;52.134;4.666;2023-08-07T08:25:38;15.20;;;4.45;;
53036;SDS011;38924;52.134;4.666;2023-08-07T08:28:04;12.00;;;5.97;;
53036;SDS011;38924;52.134;4.666;2023-08-07T08:30:30;7.63;;;5.32;;
53036;SDS011;38924;52.134;4.666;2023-08-07T08:32:55;12.27;;;6.18;;
53036;SDS011;38924;52.134;4.666;2023-08-07T08:35:21;6.20;;;4.93;;
53036;SDS011;38924;52.134;4.666;2023-08-07T08:37:50;12.52;;;6.03;;
53036;SDS011;38924;52.134;4.666;2023-08-07T08:40:19;12.00;;;6.22;;
53036;SDS011;38924;52.134;4.666;2023-08-07T08:42:45;10.57;;;5.55;;
53036;SDS011;38924;52.134;4.666;2023-08-07T08:45:14;17.30;;;4.40;;
53036;SDS011;38924;52.134;4.666;2023-08-07T08:47:43;11.13;;;8.02;;
53036;SDS011;38924;52.134;4.666;2023-08-07T08:50:14;10.18;;;6.47;;
53036;SDS011;38924;52.134;4.666;2023-08-07T08:52:44;13.68;;;6.60;;
53036;SDS011;38924;52.134;4.666;2023-08-07T08:55:10;10.80;;;6.38;;
53036;SDS011;38924;52.134;4.666;2023-08-07T08:57:37;12.18;;;5.78;;
53036;SDS011;38924;52.134;4.666;2023-08-07T09:00:03;15.00;;;6.15;;
53036;SDS011;38924;52.134;4.666;2023-08-07T09:02:33;9.70;;;5.07;;
53036;SDS011;38924;52.134;4.666;2023-08-07T09:04:58;13.55;;;5.55;;
53036;SDS011;38924;52.134;4.666;2023-08-07T09:07:24;17.45;;;6.05;;
53036;SDS011;38924;52.134;4.666;2023-08-07T09:09:50;15.02;;;5.57;;
53036;SDS011;38924;52.134;4.666;2023-08-07T09:12:16;10.73;;;6.32;;
53036;SDS011;38924;52.134;4.666;2023-08-07T09:14:45;12.73;;;6.63;;
53036;SDS011;38924;52.134;4.666;2023-08-07T09:17:14;10.75;;;4.50;;
53036;SDS011;38924;52.134;4.666;2023-08-07T09:19:40;9.40;;;5.57;;
53036;SDS011;38924;52.134;4.666;2023-08-07T09:22:06;13.88;;;6.28;;
53036;SDS011;38924;52.134;4.666;2023-08-07T09:24:32;13.52;;;6.03;;
53036;SDS011;38924;52.134;4.666;2023-08-07T09:26:58;10.95;;;5.35;;
53036;SDS011;38924;52.134;4.666;2023-08-07T09:29:24;11.77;;;5.32;;
53036;SDS011;38924;52.134;4.666;2023-08-07T09:31:50;12.85;;;6.78;;
53036;SDS011;38924;52.134;4.666;2023-08-07T09:34:15;13.55;;;5.45;;
53036;SDS011;38924;52.134;4.666;2023-08-07T09:36:44;10.60;;;5.95;;
53036;SDS011;38924;52.134;4.666;2023-08-07T09:39:10;9.98;;;5.00;;
53036;SDS011;38924;52.134;4.666;2023-08-07T09:41:36;8.98;;;5.85;;
53036;SDS011;38924;52.134;4.666;2023-08-07T09:44:08;10.10;;;5.57;;
53036;SDS011;38924;52.134;4.666;2023-08-07T09:46:41;10.63;;;6.75;;
53036;SDS011;38924;52.134;4.666;2023-08-07T09:49:07;11.00;;;7.63;;
53036;SDS011;38924;52.134;4.666;2023-08-07T09:51:45;9.07;;;4.85;;
53036;SDS011;38924;52.134;4.666;2023-08-07T09:54:11;14.10;;;5.60;;
53036;SDS011;38924;52.134;4.666;2023-08-07T09:56:38;14.57;;;5.93;;
53036;SDS011;38924;52.134;4.666;2023-08-07T09:59:03;11.20;;;4.90;;
53036;SDS011;38924;52.134;4.666;2023-08-07T10:01:29;12.73;;;4.97;;
53036;SDS011;38924;52.134;4.666;2023-08-07T10:03:55;12.60;;;5.60;;
53036;SDS011;38924;52.134;4.666;2023-08-07T10:06:21;16.80;;;4.05;;
53036;SDS011;38924;52.134;4.666;2023-08-07T10:08:50;11.15;;;4.63;;
53036;SDS011;38924;52.134;4.666;2023-08-07T10:11:17;11.30;;;4.43;;
53036;SDS011;38924;52.134;4.666;2023-08-07T10:13:43;11.52;;;5.10;;
53036;SDS011;38924;52.134;4.666;2023-08-07T10:16:08;12.52;;;4.68;;
53036;SDS011;38924;52.134;4.666;2023-08-07T10:18:34;6.90;;;4.10;;
53036;SDS011;38924;52.134;4.666;2023-08-07T10:21:01;8.07;;;4.32;;
53036;SDS011;38924;52.134;4.666;2023-08-07T10:23:27;7.82;;;3.83;;
53036;SDS011;38924;52.134;4.666;2023-08-07T10:25:53;12.00;;;5.57;;
53036;SDS011;38924;52.134;4.666;2023-08-07T10:28:20;7.97;;;3.67;;
53036;SDS011;38924;52.134;4.666;2023-08-07T10:30:47;10.45;;;4.55;;
53036;SDS011;38924;52.134;4.666;2023-08-07T10:33:14;8.35;;;5.00;;
53036;SDS011;38924;52.134;4.666;2023-08-07T10:35:44;9.82;;;5.40;;
53036;SDS011;38924;52.134;4.666;2023-08-07T10:38:13;10.45;;;4.63;;
53036;SDS011;38924;52.134;4.666;2023-08-07T10:43:23;13.02;;;5.95;;
53036;SDS011;38924;52.134;4.666;2023-08-07T10:45:49;9.70;;;7.57;;
53036;SDS011;38924;52.134;4.666;2023-08-07T10:48:17;12.13;;;6.95;;
53036;SDS011;38924;52.134;4.666;2023-08-07T10:53:19;10.23;;;6.68;;
53036;SDS011;38924;52.134;4.666;2023-08-07T10:55:47;9.38;;;8.45;;
53036;SDS011;38924;52.134;4.666;2023-08-07T10:58:25;9.73;;;7.13;;
53036;SDS011;38924;52.134;4.666;2023-08-07T11:00:52;9.88;;;7.65;;
53036;SDS011;38924;52.134;4.666;2023-08-07T11:03:27;9.18;;;8.27;;
53036;SDS011;38924;52.134;4.666;2023-08-07T11:05:53;12.52;;;7.00;;
53036;SDS011;38924;52.134;4.666;2023-08-07T11:08:22;7.63;;;6.93;;
53036;SDS011;38924;52.134;4.666;2023-08-07T11:10:50;10.00;;;7.00;;
53036;SDS011;38924;52.134;4.666;2023-08-07T11:13:16;12.15;;;6.28;;
53036;SDS011;38924;52.134;4.666;2023-08-07T11:15:42;9.57;;;5.68;;
53036;SDS011;38924;52.134;4.666;2023-08-07T11:18:07;7.97;;;6.22;;
53036;SDS011;38924;52.134;4.666;2023-08-07T11:20:34;9.23;;;7.03;;
53036;SDS011;38924;52.134;4.666;2023-08-07T11:22:59;9.10;;;5.88;;
53036;SDS011;38924;52.134;4.666;2023-08-07T11:25:26;9.93;;;8.30;;
53036;SDS011;38924;52.134;4.666;2023-08-07T11:27:51;7.78;;;6.70;;
53036;SDS011;38924;52.134;4.666;2023-08-07T11:30:17;10.30;;;6.13;;
53036;SDS011;38924;52.134;4.666;2023-08-07T11:32:43;13.50;;;6.82;;
53036;SDS011;38924;52.134;4.666;2023-08-07T11:35:08;9.45;;;5.32;;
53036;SDS011;38924;52.134;4.666;2023-08-07T11:37:35;11.90;;;6.50;;
53036;SDS011;38924;52.134;4.666;2023-08-07T11:40:05;8.63;;;5.57;;
53036;SDS011;38924;52.134;4.666;2023-08-07T11:42:31;13.13;;;6.22;;
53036;SDS011;38924;52.134;4.666;2023-08-07T11:44:56;6.57;;;5.88;;
53036;SDS011;38924;52.134;4.666;2023-08-07T11:47:22;12.38;;;5.18;;
53036;SDS011;38924;52.134;4.666;2023-08-07T11:49:48;12.45;;;5.68;;
53036;SDS011;38924;52.134;4.666;2023-08-07T11:52:13;5.18;;;4.15;;
53036;SDS011;38924;52.134;4.666;2023-08-07T11:54:39;11.52;;;5.38;;
53036;SDS011;38924;52.134;4.666;2023-08-07T11:57:14;10.75;;;5.15;;
53036;SDS011;38924;52.134;4.666;2023-08-07T11:59:41;8.63;;;5.68;;
53036;SDS011;38924;52.134;4.666;2023-08-07T12:02:09;13.52;;;5.43;;
53036;SDS011;38924;52.134;4.666;2023-08-07T12:04:37;11.98;;;5.47;;
53036;SDS011;38924;52.134;4.666;2023-08-07T12:07:03;12.45;;;5.97;;
53036;SDS011;38924;52.134;4.666;2023-08-07T12:09:29;8.30;;;6.88;;
53036;SDS011;38924;52.134;4.666;2023-08-07T12:11:58;8.35;;;7.00;;
53036;SDS011;38924;52.134;4.666;2023-08-07T12:14:31;7.18;;;4.22;;
53036;SDS011;38924;52.134;4.666;2023-08-07T12:16:56;9.40;;;5.07;;
53036;SDS011;38924;52.134;4.666;2023-08-07T12:19:22;9.15;;;5.30;;
53036;SDS011;38924;52.134;4.666;2023-08-07T12:21:48;7.43;;;5.35;;
53036;SDS011;38924;52.134;4.666;2023-08-07T12:24:13;10.68;;;6.32;;
53036;SDS011;38924;52.134;4.666;2023-08-07T12:26:39;7.85;;;5.82;;
53036;SDS011;38924;52.134;4.666;2023-08-07T12:29:05;14.57;;;5.00;;
53036;SDS011;38924;52.134;4.666;2023-08-07T12:31:31;6.22;;;4.18;;
53036;SDS011;38924;52.134;4.666;2023-08-07T12:33:56;7.10;;;4.32;;
53036;SDS011;38924;52.134;4.666;2023-08-07T12:36:22;12.35;;;5.10;;
53036;SDS011;38924;52.134;4.666;2023-08-07T12:38:48;9.75;;;5.97;;
53036;SDS011;38924;52.134;4.666;2023-08-07T12:41:16;11.02;;;4.55;;
53036;SDS011;38924;52.134;4.666;2023-08-07T12:43:42;8.25;;;5.65;;
53036;SDS011;38924;52.134;4.666;2023-08-07T12:46:08;6.65;;;4.97;;
53036;SDS011;38924;52.134;4.666;2023-08-07T12:48:33;12.35;;;6.15;;
53036;SDS011;38924;52.134;4.666;2023-08-07T12:50:59;12.20;;;6.07;;
53036;SDS011;38924;52.134;4.666;2023-08-07T12:53:25;7.53;;;5.55;;
53036;SDS011;38924;52.134;4.666;2023-08-07T12:55:50;9.02;;;6.38;;
53036;SDS011;38924;52.134;4.666;2023-08-07T12:58:16;7.05;;;6.38;;
53036;SDS011;38924;52.134;4.666;2023-08-07T13:00:44;10.00;;;7.38;;
53036;SDS011;38924;52.134;4.666;2023-08-07T13:03:09;11.32;;;7.13;;
53036;SDS011;38924;52.134;4.666;2023-08-07T13:05:35;11.85;;;5.65;;
53036;SDS011;38924;52.134;4.666;2023-08-07T13:08:01;6.55;;;4.47;;
53036;SDS011;38924;52.134;4.666;2023-08-07T13:10:27;6.25;;;5.32;;
53036;SDS011;38924;52.134;4.666;2023-08-07T13:12:56;5.65;;;3.95;;
53036;SDS011;38924;52.134;4.666;2023-08-07T13:15:22;9.55;;;4.50;;
53036;SDS011;38924;52.134;4.666;2023-08-07T13:17:48;11.02;;;4.82;;
53036;SDS011;38924;52.134;4.666;2023-08-07T13:20:13;8.52;;;5.70;;
53036;SDS011;38924;52.134;4.666;2023-08-07T13:22:40;10.15;;;5.70;;
53036;SDS011;38924;52.134;4.666;2023-08-07T13:25:07;6.40;;;4.95;;
53036;SDS011;38924;52.134;4.666;2023-08-07T13:27:35;5.97;;;3.92;;
53036;SDS011;38924;52.134;4.666;2023-08-07T13:30:03;9.90;;;5.90;;
53036;SDS011;38924;52.134;4.666;2023-08-07T13:32:29;8.77;;;6.47;;
53036;SDS011;38924;52.134;4.666;2023-08-07T13:34:55;13.13;;;5.35;;
53036;SDS011;38924;52.134;4.666;2023-08-07T13:37:21;9.98;;;4.03;;
53036;SDS011;38924;52.134;4.666;2023-08-07T13:39:46;9.63;;;4.50;;
53036;SDS011;38924;52.134;4.666;2023-08-07T13:42:15;12.18;;;6.05;;
53036;SDS011;38924;52.134;4.666;2023-08-07T13:44:40;9.90;;;4.20;;
53036;SDS011;38924;52.134;4.666;2023-08-07T13:47:06;5.40;;;4.55;;
53036;SDS011;38924;52.134;4.666;2023-08-07T13:49:35;6.47;;;5.93;;
53036;SDS011;38924;52.134;4.666;2023-08-07T13:52:01;5.70;;;4.63;;
53036;SDS011;38924;52.134;4.666;2023-08-07T13:54:27;6.57;;;4.65;;
53036;SDS011;38924;52.134;4.666;2023-08-07T13:56:52;10.60;;;5.32;;
53036;SDS011;38924;52.134;4.666;2023-08-07T13:59:18;9.93;;;5.65;;
53036;SDS011;38924;52.134;4.666;2023-08-07T14:01:44;5.60;;;4.60;;
53036;SDS011;38924;52.134;4.666;2023-08-07T14:04:09;5.75;;;4.95;;
53036;SDS011;38924;52.134;4.666;2023-08-07T14:06:35;4.90;;;4.38;;
53036;SDS011;38924;52.134;4.666;2023-08-07T14:09:01;5.95;;;4.57;;
53036;SDS011;38924;52.134;4.666;2023-08-07T14:11:26;8.82;;;5.88;;
53036;SDS011;38924;52.134;4.666;2023-08-07T14:13:56;6.13;;;4.20;;
53036;SDS011;38924;52.134;4.666;2023-08-07T14:16:22;5.70;;;5.18;;
53036;SDS011;38924;52.134;4.666;2023-08-07T14:18:48;7.93;;;5.15;;
53036;SDS011;38924;52.134;4.666;2023-08-07T14:21:13;10.75;;;4.97;;
53036;SDS011;38924;52.134;4.666;2023-08-07T14:23:39;6.90;;;4.25;;
53036;SDS011;38924;52.134;4.666;2023-08-07T14:26:05;10.63;;;6.10;;
53036;SDS011;38924;52.134;4.666;2023-08-07T14:28:30;6.55;;;3.90;;
53036;SDS011;38924;52.134;4.666;2023-08-07T14:30:59;5.28;;;3.83;;
53036;SDS011;38924;52.134;4.666;2023-08-07T14:33:25;7.32;;;4.43;;
53036;SDS011;38924;52.134;4.666;2023-08-07T14:35:51;6.95;;;4.13;;
53036;SDS011;38924;52.134;4.666;2023-08-07T14:38:17;4.38;;;3.80;;
53036;SDS011;38924;52.134;4.666;2023-08-07T14:40:42;6.80;;;4.10;;